createdAt,value
2022-12-18T01:53:25.400Z,101737.25
2022-12-18T01:55:55.328Z,101780.09
2022-12-18T01:58:29.813Z,101770.53
2022-12-18T02:00:57.918Z,101778.25
2022-12-18T02:03:25.635Z,101747.56
2022-12-18T02:06:05.744Z,101786.88
2022-12-18T02:08:42.864Z,101788.44
2022-12-18T02:11:17.304Z,101771.00
2022-12-18T02:13:54.192Z,101785.66
2022-12-18T02:16:30.706Z,101800.50
2022-12-18T02:19:01.802Z,101800.44
2022-12-18T02:21:37.810Z,101812.63
2022-12-18T02:24:18.860Z,101819.56
2022-12-18T02:26:51.544Z,101816.03
2022-12-18T02:29:23.940Z,101814.38
2022-12-18T02:31:55.477Z,101818.06
2022-12-18T02:34:27.051Z,101790.19
2022-12-18T02:36:56.801Z,101829.31
2022-12-18T02:39:30.224Z,101814.66
2022-12-18T02:42:08.655Z,101818.84
2022-12-18T02:44:42.571Z,101820.41
2022-12-18T02:47:12.402Z,101833.38
2022-12-18T02:49:50.253Z,101835.06
2022-12-18T02:52:26.868Z,101846.22
2022-12-18T02:55:06.528Z,101826.06
2022-12-18T02:57:43.583Z,101847.00
2022-12-18T03:00:14.584Z,101839.91
2022-12-18T03:02:48.554Z,101850.13
2022-12-18T03:05:20.505Z,101834.97
2022-12-18T03:07:54.735Z,101862.22
2022-12-18T03:10:28.392Z,101872.22
2022-12-18T03:13:03.152Z,101857.72
2022-12-18T03:15:36.189Z,101887.28
2022-12-18T03:18:10.185Z,101872.16
2022-12-18T03:20:40.849Z,101863.28
2022-12-18T03:23:12.926Z,101893.78
2022-12-18T03:25:42.965Z,101899.59
2022-12-18T03:28:15.961Z,101893.94
2022-12-18T03:30:47.132Z,101890.47
2022-12-18T03:33:20.070Z,101902.50
2022-12-18T03:35:47.946Z,101902.59
2022-12-18T03:38:15.610Z,101901.69
2022-12-18T03:40:58.166Z,101912.03
2022-12-18T03:43:40.077Z,101911.84
2022-12-18T03:46:15.646Z,101920.50
2022-12-18T03:48:49.394Z,101926.41
2022-12-18T03:51:23.703Z,101938.41
2022-12-18T03:53:56.950Z,101949.56
2022-12-18T03:56:26.676Z,101943.34
2022-12-18T03:58:58.690Z,101923.75
2022-12-18T04:01:32.012Z,101969.97
2022-12-18T04:04:02.278Z,101960.84
2022-12-18T04:06:34.011Z,101967.72
2022-12-18T04:09:01.914Z,101980.47
2022-12-18T04:11:29.625Z,101987.38
2022-12-18T04:13:59.745Z,101969.09
2022-12-18T04:16:28.126Z,102003.19
2022-12-18T04:18:55.739Z,101998.56
2022-12-18T04:21:25.042Z,102004.84
2022-12-18T04:23:52.823Z,102006.69
2022-12-18T04:26:20.614Z,102011.88
2022-12-18T04:28:48.389Z,101984.63
2022-12-18T04:31:17.602Z,102016.25
2022-12-18T04:33:45.234Z,102029.56
2022-12-18T04:36:13.084Z,102026.16
2022-12-18T04:38:41.054Z,102044.22
2022-12-18T04:41:08.718Z,101984.31
2022-12-18T04:43:37.263Z,102024.50
2022-12-18T04:46:06.489Z,102036.41
2022-12-18T04:48:36.365Z,102056.41
2022-12-18T04:51:04.895Z,102047.53
2022-12-18T04:53:33.000Z,102044.06
2022-12-18T04:56:05.616Z,102047.59
2022-12-18T04:58:33.351Z,102048.31
2022-12-18T05:01:02.462Z,102065.50
2022-12-18T05:03:30.809Z,102065.31
2022-12-18T05:06:14.774Z,102049.81
2022-12-18T05:08:42.601Z,102063.94
2022-12-18T05:11:15.675Z,102069.97
2022-12-18T05:13:44.264Z,102077.78
2022-12-18T05:16:13.399Z,102083.69
2022-12-18T05:18:41.981Z,102069.44
2022-12-18T05:21:10.125Z,102075.34
2022-12-18T05:23:40.744Z,102084.19
2022-12-18T05:26:09.609Z,102083.00
2022-12-18T05:28:37.896Z,102096.13
2022-12-18T05:31:06.319Z,102087.34
2022-12-18T05:33:35.513Z,102082.84
2022-12-18T05:36:05.697Z,102056.13
2022-12-18T05:38:35.057Z,102083.47
2022-12-18T05:41:05.434Z,102099.03
2022-12-18T05:43:35.546Z,102086.41
2022-12-18T05:46:08.226Z,102125.00
2022-12-18T05:48:36.245Z,102095.22
2022-12-18T05:51:09.988Z,102117.00
2022-12-18T05:53:38.921Z,102115.59
2022-12-18T05:56:10.479Z,102112.94
2022-12-18T05:58:38.516Z,102120.91
2022-12-18T06:01:12.415Z,102156.84
2022-12-18T06:03:40.939Z,102157.94
2022-12-18T06:06:15.880Z,102140.19
2022-12-18T06:08:46.468Z,102165.75
2022-12-18T06:11:19.303Z,102169.91
2022-12-18T06:13:47.645Z,102151.53
2022-12-18T06:16:15.668Z,102181.41
2022-12-18T06:21:25.633Z,102189.38
2022-12-18T06:23:53.517Z,102189.78
2022-12-18T06:26:28.070Z,102186.16
2022-12-18T06:28:56.808Z,102204.59
2022-12-18T06:31:25.079Z,102192.50
2022-12-18T06:33:53.155Z,102219.56
2022-12-18T06:36:22.714Z,102220.59
2022-12-18T06:38:50.485Z,102226.91
2022-12-18T06:41:20.295Z,102215.75
2022-12-18T06:43:49.814Z,102215.56
2022-12-18T06:46:47.952Z,102176.34
2022-12-18T06:49:30.768Z,102231.75
2022-12-18T06:52:00.855Z,102234.53
2022-12-18T06:54:28.722Z,102220.47
2022-12-18T06:56:56.446Z,102217.97
2022-12-18T06:59:25.592Z,102223.41
2022-12-18T07:01:54.067Z,102237.88
2022-12-18T07:04:22.667Z,102216.97
2022-12-18T07:06:50.563Z,102234.63
2022-12-18T07:09:18.657Z,102226.38
2022-12-18T07:14:42.396Z,102220.47
2022-12-18T07:17:10.955Z,102223.38
2022-12-18T07:19:38.935Z,102217.38
2022-12-18T07:22:12.572Z,102219.72
2022-12-18T07:24:40.748Z,102211.72
2022-12-18T07:27:08.431Z,102204.00
2022-12-18T07:29:37.865Z,102205.63
2022-12-18T07:32:08.110Z,102225.72
2022-12-18T07:34:36.355Z,102232.44
2022-12-18T07:37:04.970Z,102240.72
2022-12-18T07:39:32.800Z,102251.72
2022-12-18T07:42:00.473Z,102248.94
2022-12-18T07:44:28.389Z,102269.91
2022-12-18T07:46:56.603Z,102284.91
2022-12-18T07:49:25.772Z,102269.38
2022-12-18T07:51:55.636Z,102275.56
2022-12-18T07:54:23.676Z,102267.00
2022-12-18T07:56:51.584Z,102275.16
2022-12-18T07:59:19.462Z,102280.69
2022-12-18T08:01:47.160Z,102282.78
2022-12-18T08:04:14.796Z,102301.97
2022-12-18T08:06:47.767Z,102294.72
2022-12-18T08:09:16.107Z,102301.91
2022-12-18T08:11:43.773Z,102306.44
2022-12-18T08:14:11.801Z,102302.38
2022-12-18T08:16:39.724Z,102310.38
2022-12-18T08:19:07.338Z,102306.25
2022-12-18T08:21:36.849Z,102315.03
2022-12-18T08:24:06.823Z,102307.22
2022-12-18T08:26:34.439Z,102308.19
2022-12-18T08:29:02.428Z,102304.78
2022-12-18T08:31:31.420Z,102303.75
2022-12-18T08:33:59.640Z,102296.72
2022-12-18T08:36:27.405Z,102297.31
2022-12-18T10:59:57.100Z,102323.72
2022-12-18T11:02:36.926Z,102404.56
2022-12-18T11:48:39.432Z,102396.53
2022-12-18T11:51:13.915Z,102380.75
2022-12-18T11:56:33.151Z,102419.84
2022-12-18T11:59:10.165Z,102392.38
2022-12-18T12:02:10.462Z,102386.78
2022-12-18T12:05:05.681Z,102429.44
2022-12-18T12:07:44.933Z,102439.44
2022-12-18T12:10:34.282Z,102417.94
2022-12-18T12:13:38.992Z,102419.53
2022-12-18T12:16:15.940Z,102455.91
2022-12-18T12:19:00.104Z,102458.09
2022-12-18T12:21:37.683Z,102454.25
2022-12-18T12:24:22.461Z,102452.97
2022-12-18T12:27:02.343Z,102476.16
2022-12-18T12:29:47.359Z,102479.78
2022-12-18T12:32:31.030Z,102493.66
2022-12-18T12:35:13.107Z,102488.56
2022-12-18T12:37:52.932Z,102500.56
2022-12-18T12:43:27.031Z,102499.75
2022-12-18T12:45:58.372Z,102502.28
2022-12-18T12:48:39.080Z,102499.63
2022-12-18T12:51:14.171Z,102495.78
2022-12-18T12:53:43.846Z,102499.94
2022-12-18T12:56:15.831Z,102508.41
2022-12-18T12:58:53.749Z,102509.97
2022-12-18T13:01:29.474Z,102506.31
2022-12-18T13:04:09.998Z,102514.97
2022-12-18T13:09:36.846Z,102540.59
2022-12-18T13:12:12.714Z,102534.50
2022-12-18T13:14:42.037Z,102543.69
2022-12-18T13:17:30.130Z,102549.63
2022-12-18T13:20:07.553Z,102549.47
2022-12-18T13:22:37.824Z,102562.56
2022-12-18T13:25:32.970Z,102563.22
2022-12-18T13:28:10.618Z,102568.41
2022-12-18T13:30:59.475Z,102564.03
2022-12-18T13:34:24.451Z,102563.69
2022-12-18T13:36:36.238Z,102572.38
2022-12-18T13:42:38.509Z,102576.44
2022-12-18T13:45:32.645Z,102579.19
2022-12-18T13:48:00.518Z,102588.50
2022-12-18T13:50:35.303Z,102591.28
2022-12-18T13:53:05.589Z,102591.34
2022-12-18T13:55:35.561Z,102597.22
2022-12-18T13:58:07.638Z,102598.06
2022-12-18T14:00:36.628Z,102608.44
2022-12-18T14:03:22.129Z,102607.47
2022-12-18T14:06:02.598Z,102604.91
2022-12-18T14:08:36.527Z,102607.22
2022-12-18T14:11:07.757Z,102613.25
2022-12-18T14:13:43.565Z,102626.16
2022-12-18T14:16:16.025Z,102637.31
2022-12-18T14:18:47.447Z,102630.50
2022-12-18T14:21:22.659Z,102630.63
2022-12-18T14:24:03.816Z,102633.34
2022-12-18T14:26:32.838Z,102637.63
2022-12-18T14:29:21.594Z,102636.75
2022-12-18T14:32:21.819Z,102633.09
2022-12-18T14:34:51.207Z,102619.91
2022-12-18T14:37:22.926Z,102628.31
2022-12-18T14:39:54.346Z,102642.47
2022-12-18T14:42:22.319Z,102641.41
2022-12-18T14:45:12.798Z,102639.78
2022-12-18T14:47:39.833Z,102641.28
2022-12-18T14:50:14.880Z,102649.03
2022-12-18T14:52:42.886Z,102640.34
2022-12-18T14:55:16.769Z,102636.81
2022-12-18T14:57:45.277Z,102651.69
2022-12-18T15:00:19.314Z,102652.50
2022-12-18T15:02:49.538Z,102659.50
2022-12-18T15:05:19.791Z,102668.06
2022-12-18T15:07:49.485Z,102669.84
2022-12-18T15:10:19.506Z,102681.19
2022-12-18T15:12:51.887Z,102688.00
2022-12-18T15:15:49.797Z,102694.25
2022-12-18T15:18:19.724Z,102683.78
2022-12-18T15:20:49.959Z,102691.53
2022-12-18T15:31:05.505Z,102718.25
2022-12-18T15:33:35.488Z,102722.22
2022-12-18T15:36:05.552Z,102726.44
2022-12-18T15:38:33.362Z,102724.03
2022-12-18T15:41:01.570Z,102724.88
2022-12-18T15:43:30.050Z,102716.16
2022-12-18T15:45:57.734Z,102724.88
2022-12-18T15:48:29.793Z,102721.38
2022-12-18T15:50:58.946Z,102727.31
2022-12-18T15:53:30.150Z,102736.84
2022-12-18T15:56:01.162Z,102750.53
2022-12-18T15:58:30.184Z,102747.94
2022-12-18T16:01:00.570Z,102749.63
2022-12-18T16:03:29.714Z,102753.34
2022-12-18T16:05:57.778Z,102747.31
2022-12-18T16:08:26.260Z,102731.22
2022-12-18T16:10:53.917Z,102762.50
2022-12-18T16:13:21.959Z,102763.38
2022-12-18T16:15:49.834Z,102765.97
2022-12-18T16:18:17.476Z,102763.19
2022-12-18T16:20:46.786Z,102770.03
2022-12-18T16:23:14.570Z,102776.41
2022-12-18T16:25:42.413Z,102777.31
2022-12-18T16:28:13.088Z,102789.34
2022-12-18T16:30:40.660Z,102781.47
2022-12-18T16:33:10.607Z,102790.09
2022-12-18T16:35:38.357Z,102797.75
2022-12-18T16:38:07.534Z,102802.34
2022-12-18T16:40:35.134Z,102770.66
2022-12-18T16:43:03.027Z,102789.28
2022-12-18T16:45:31.018Z,102780.31
2022-12-18T16:47:58.685Z,102796.81
2022-12-18T16:50:26.622Z,102802.22
2022-12-18T16:52:54.232Z,102821.09
2022-12-18T16:55:23.236Z,102807.50
2022-12-18T16:57:51.130Z,102800.34
2022-12-18T17:00:19.046Z,102810.63
2022-12-18T17:02:46.770Z,102813.16
2022-12-18T17:05:15.246Z,102810.63
2022-12-18T17:07:42.845Z,102800.31
2022-12-18T17:10:10.908Z,102805.53
2022-12-18T17:12:41.718Z,102814.97
2022-12-18T17:15:11.328Z,102801.19
2022-12-18T17:17:39.077Z,102814.09
2022-12-18T17:20:07.938Z,102817.38
2022-12-18T17:22:36.265Z,102818.41
2022-12-18T17:25:05.100Z,102825.19
2022-12-18T17:27:33.060Z,102829.72
2022-12-18T17:30:02.072Z,102840.03
2022-12-18T17:32:30.131Z,102838.25
2022-12-18T17:35:01.466Z,102830.47
2022-12-18T17:37:32.056Z,102826.88
2022-12-18T17:40:00.522Z,102828.06
2022-12-18T17:42:28.276Z,102831.34
2022-12-18T17:44:55.898Z,102832.31
2022-12-18T17:47:25.318Z,102825.47
2022-12-18T17:49:53.085Z,102825.47
2022-12-18T17:52:22.461Z,102823.69
2022-12-18T17:54:50.295Z,102835.66
2022-12-18T17:57:17.881Z,102839.06
2022-12-18T17:59:45.787Z,102844.91
2022-12-18T18:02:13.766Z,102838.13
2022-12-18T18:04:43.504Z,102839.00
2022-12-18T18:07:11.351Z,102839.94
2022-12-18T18:09:39.952Z,102851.63
2022-12-18T18:12:08.870Z,102847.06
2022-12-18T18:14:37.197Z,102849.84
2022-12-18T18:17:05.768Z,102863.66
2022-12-18T18:19:33.955Z,102859.19
2022-12-18T18:22:03.636Z,102854.13
2022-12-18T18:24:33.436Z,102866.59
2022-12-18T18:27:00.985Z,102870.00
2022-12-18T18:29:29.354Z,102880.34
2022-12-18T18:31:57.577Z,102871.75
2022-12-18T18:34:27.823Z,102883.66
2022-12-18T18:36:55.614Z,102889.63
2022-12-18T18:39:25.254Z,102886.94
2022-12-18T18:41:53.342Z,102892.97
2022-12-18T18:44:25.784Z,102897.38
2022-12-18T18:46:55.184Z,102889.34
2022-12-18T18:49:23.536Z,102907.50
2022-12-18T18:51:51.444Z,102898.22
2022-12-18T18:54:19.668Z,102915.63
2022-12-18T18:57:19.478Z,102914.59
2022-12-18T18:59:37.475Z,102903.47
2022-12-18T19:02:09.287Z,102918.44
2022-12-18T19:04:40.908Z,102917.28
2022-12-18T19:07:23.844Z,102926.56
2022-12-18T19:10:04.838Z,102930.72
2022-12-18T19:12:35.296Z,102929.75
2022-12-18T19:15:06.818Z,102920.00
2022-12-18T19:17:34.682Z,102927.19
2022-12-18T19:20:02.984Z,102929.38
2022-12-18T19:22:32.028Z,102916.16
2022-12-18T19:25:00.006Z,102927.47
2022-12-18T19:27:27.670Z,102935.13
2022-12-18T19:29:56.967Z,102922.53
2022-12-18T19:32:24.847Z,102940.13
2022-12-18T19:34:53.459Z,102936.44
2022-12-18T19:37:24.725Z,102934.91
2022-12-18T19:40:00.155Z,102936.53
2022-12-18T19:42:35.363Z,102926.53
2022-12-18T19:45:05.905Z,102936.88
2022-12-18T19:47:33.711Z,102945.41
2022-12-18T19:50:01.376Z,102950.72
2022-12-18T19:52:29.409Z,102944.38
2022-12-18T19:54:57.160Z,102945.81
2022-12-18T19:57:24.788Z,102947.75
2022-12-18T19:59:52.721Z,102939.22
2022-12-18T20:02:22.116Z,102953.09
2022-12-18T20:04:52.986Z,102957.34
2022-12-18T20:07:21.503Z,102960.19
2022-12-18T20:09:51.650Z,102960.97
2022-12-18T20:12:25.340Z,102970.81
2022-12-18T20:14:55.375Z,102991.47
2022-12-18T20:17:24.347Z,102995.88
2022-12-18T20:19:52.623Z,102987.91
2022-12-18T20:22:20.402Z,102999.66
2022-12-18T20:24:48.002Z,102991.59
2022-12-18T20:27:19.581Z,102996.03
2022-12-18T20:29:47.304Z,102992.72
2022-12-18T20:32:15.109Z,102987.53
2022-12-18T20:34:44.682Z,102983.78
2022-12-18T20:37:12.842Z,102976.69
2022-12-18T20:39:41.041Z,102986.34
2022-12-18T20:42:09.713Z,102991.53
2022-12-18T20:44:37.954Z,102993.13
2022-12-18T20:47:08.659Z,102987.97
2022-12-18T20:49:37.290Z,102993.97
2022-12-18T20:52:11.108Z,102996.91
2022-12-18T20:54:39.584Z,103001.78
2022-12-18T20:57:07.154Z,102992.91
2022-12-18T20:59:34.746Z,102986.00
2022-12-18T21:02:02.867Z,103001.16
2022-12-18T21:04:30.708Z,102993.66
2022-12-18T21:07:02.692Z,102995.41
2022-12-18T21:09:37.100Z,102999.53
2022-12-18T21:12:13.203Z,102994.06
2022-12-18T21:14:43.065Z,102999.22
2022-12-18T21:17:11.070Z,102995.19
2022-12-18T21:19:38.796Z,103007.44
2022-12-18T21:22:06.775Z,103001.41
2022-12-18T21:24:35.957Z,103006.66
2022-12-18T21:27:03.576Z,103010.03
2022-12-18T21:29:31.777Z,103009.06
2022-12-18T21:31:59.582Z,103016.00
2022-12-18T21:34:29.806Z,103010.84
2022-12-18T21:36:59.505Z,103011.59
2022-12-18T21:39:29.799Z,103013.00
2022-12-18T21:41:59.648Z,103018.13
2022-12-18T21:44:27.310Z,103019.06
2022-12-18T21:46:58.376Z,102994.25
2022-12-18T21:49:31.826Z,103016.25
2022-12-18T21:52:01.193Z,103020.53
2022-12-18T21:54:29.452Z,103015.38
2022-12-18T21:57:00.304Z,103005.38
2022-12-18T21:59:30.253Z,103026.22
2022-12-18T22:01:59.999Z,103033.19
2022-12-18T22:04:31.389Z,103028.44
2022-12-18T22:07:00.631Z,103030.78
2022-12-18T22:09:28.282Z,103024.03
2022-12-18T22:11:55.877Z,103025.81
2022-12-18T22:14:25.431Z,103023.00
2022-12-18T22:16:53.205Z,103027.81
2022-12-18T22:19:21.029Z,103035.47
2022-12-18T22:21:49.924Z,103038.88
2022-12-18T22:24:19.702Z,103043.06
2022-12-18T22:26:47.777Z,103047.38
2022-12-18T22:29:17.893Z,103058.91
2022-12-18T22:31:47.225Z,103055.31
2022-12-18T22:34:14.914Z,103047.00
2022-12-18T22:36:45.095Z,103050.31
2022-12-18T22:39:15.436Z,103063.09
2022-12-18T22:41:43.467Z,103063.19
2022-12-18T22:44:11.302Z,103077.78
2022-12-18T22:46:45.019Z,103074.22
2022-12-18T22:49:17.122Z,103075.75
2022-12-18T22:51:45.079Z,103073.00
2022-12-18T22:54:13.170Z,103077.72
2022-12-18T22:56:41.093Z,103074.91
2022-12-18T22:59:15.653Z,103071.09
2022-12-18T23:01:44.879Z,103066.13
2022-12-18T23:04:16.119Z,103072.00
2022-12-18T23:06:45.109Z,103073.13
2022-12-18T23:09:18.046Z,103073.50
2022-12-18T23:11:46.499Z,103076.44
2022-12-18T23:14:15.604Z,103067.38
2022-12-18T23:16:43.699Z,103078.75
2022-12-18T23:19:15.495Z,103071.91
2022-12-18T23:21:43.073Z,103075.47
2022-12-18T23:24:10.750Z,103080.81
2022-12-18T23:26:39.148Z,103076.91
2022-12-18T23:29:07.119Z,103079.66
2022-12-18T23:31:36.438Z,103073.59
2022-12-18T23:34:05.657Z,103087.13
2022-12-18T23:36:35.870Z,103093.59
2022-12-18T23:39:25.407Z,103098.66
2022-12-18T23:41:56.910Z,103107.25
2022-12-18T23:44:25.043Z,103105.41
